Terminal Aerodrome Forecast
Issued by NWS Mt. Holly, NJ

Home | Current Version | Previous Version | Text Only | Print | Product List | Glossary On
Versions: 1 2 3 4 5 6 7 8 9 10 11 12
000
FTUS41 KPHI 311720
TAFTTN
TAF
KTTN 311720Z 3118/0118 28004KT P6SM VCSH FEW050 BKN200
     FM312000 29008G15KT P6SM VCSH SCT050 BKN200
     FM312300 29007KT P6SM SCT050
     FM010400 VRB03KT P6SM SKC
     FM011200 36004KT P6SM SKC=

USA.gov is the U.S. government's official web portal to all federal, state and local government web resources and services.